Time;durP1;ratioP1;P1;durP2;ratioP2;P2;SDS_P1;SDS_P2;PMS_P1;PMS_P2;Temp;Humidity;BMP_temperature;BMP_pressure;BME280_temperature;BME280_humidity;BME280_pressure;Samples;Min_cycle;Max_cycle;Signal;HPM_P1;HPM_P2
2023/05/15 00:00:39;;;;;;;6.60;4.25;;;;;;;15.20;46.37;100078.20;1738389;82;25887;-57
2023/05/15 00:03:07;;;;;;;8.88;4.65;;;;;;;15.23;46.46;100072.06;1738595;82;25516;-57
2023/05/15 00:05:33;;;;;;;7.92;4.12;;;;;;;15.25;46.34;100071.14;1738458;82;25634;-57
2023/05/15 00:07:59;;;;;;;7.62;4.30;;;;;;;15.25;46.41;100069.20;1700501;84;25607;-57
2023/05/15 00:10:25;;;;;;;6.00;4.80;;;;;;;15.28;46.32;100070.45;1677883;85;27336;-55
2023/05/15 00:12:51;;;;;;;7.58;4.37;;;;;;;15.28;46.27;100064.42;1738226;82;25932;-57
2023/05/15 00:15:18;;;;;;;6.35;4.33;;;;;;;15.29;46.45;100067.39;1738024;82;25513;-56
2023/05/15 00:17:44;;;;;;;8.88;4.58;;;;;;;15.30;46.29;100064.87;1737457;82;25686;-54
2023/05/15 00:20:11;;;;;;;6.78;4.62;;;;;;;15.31;46.50;100060.23;1700528;84;25380;-56
2023/05/15 00:22:39;;;;;;;7.15;4.25;;;;;;;15.30;46.07;100051.25;1672317;85;27342;-58
2023/05/15 00:25:08;;;;;;;9.53;4.42;;;;;;;15.33;45.93;100053.08;1737930;82;25720;-55
2023/05/15 00:27:35;;;;;;;8.70;3.98;;;;;;;15.33;45.99;100051.72;1736643;82;25967;-57
2023/05/15 00:30:01;;;;;;;6.17;3.70;;;;;;;15.32;45.86;100048.17;1737244;82;25687;-57
2023/05/15 00:32:28;;;;;;;7.87;4.90;;;;;;;15.34;45.80;100047.83;1738307;81;25388;-54
2023/05/15 00:34:54;;;;;;;7.87;4.35;;;;;;;15.32;45.83;100044.09;1738301;82;27457;-56
2023/05/15 00:37:20;;;;;;;6.72;4.60;;;;;;;15.31;45.82;100037.08;1738111;82;25429;-58
2023/05/15 00:39:46;;;;;;;11.78;3.83;;;;;;;15.34;46.03;100038.30;1737950;82;25606;-58
2023/05/15 00:42:16;;;;;;;5.05;3.90;;;;;;;15.31;45.99;100028.90;1738340;82;26172;-55
2023/05/15 00:44:44;;;;;;;6.97;4.15;;;;;;;15.30;46.01;100034.89;1738408;82;25614;-57
2023/05/15 00:47:13;;;;;;;8.87;4.10;;;;;;;15.29;46.06;100025.16;1738595;82;27297;-58
2023/05/15 00:49:41;;;;;;;8.93;4.80;;;;;;;15.28;45.99;100026.86;1738475;82;27270;-57
2023/05/15 00:52:08;;;;;;;9.38;4.03;;;;;;;15.26;46.03;100024.48;1738318;82;25574;-57
2023/05/15 00:54:35;;;;;;;6.60;4.10;;;;;;;15.25;46.28;100011.20;1738279;82;25670;-55
2023/05/15 00:57:05;;;;;;;5.00;4.05;;;;;;;15.25;46.29;100011.98;1738291;82;25451;-57
2023/05/15 00:59:34;;;;;;;6.80;3.95;;;;;;;15.23;46.16;100006.67;1738351;82;27327;-56
2023/05/15 01:02:01;;;;;;;5.40;3.90;;;;;;;15.20;46.06;99999.98;1738240;82;25386;-57
2023/05/15 01:04:29;;;;;;;8.10;4.03;;;;;;;15.18;45.97;100003.63;1738332;82;25606;-54
2023/05/15 01:06:57;;;;;;;5.72;4.15;;;;;;;15.16;45.96;100007.84;1738289;82;25714;-57
2023/05/15 01:09:25;;;;;;;4.78;4.00;;;;;;;15.13;45.98;100018.27;1738409;82;25392;-57
2023/05/15 01:11:54;;;;;;;9.90;6.00;;;;;;;15.11;46.08;100019.77;1738330;82;27380;-57
2023/05/15 01:14:20;;;;;;;;;;;;;;;15.10;45.95;100016.81;1703110;84;25654;-57
2023/05/15 01:16:48;;;;;;;11.20;4.03;;;;;;;15.11;45.90;100021.14;1677966;85;25387;-58
2023/05/15 01:19:16;;;;;;;6.15;4.20;;;;;;;15.09;45.85;100013.31;1678004;85;26394;-55
2023/05/15 01:22:20;;;;;;;6.60;4.00;;;;;;;15.11;45.96;100010.23;1678016;85;25491;-57
2023/05/15 01:24:58;;;;;;;7.90;4.30;;;;;;;15.10;46.04;100012.18;1738488;82;27369;-57
2023/05/15 01:27:41;;;;;;;;;;;;;;;15.08;45.96;100010.92;1738304;82;25811;-58
2023/05/15 01:30:29;;;;;;;9.08;4.83;;;;;;;15.07;46.05;100009.36;1669325;85;25454;-57
2023/05/15 01:33:16;;;;;;;8.33;5.62;;;;;;;15.04;46.04;99999.15;1669248;86;25598;-57
2023/05/15 01:36:13;;;;;;;9.93;4.85;;;;;;;15.02;46.14;99995.41;1669079;86;25444;-57
2023/05/15 01:38:57;;;;;;;9.48;4.50;;;;;;;14.99;46.12;99973.52;1669311;86;27344;-57
2023/05/15 01:41:46;;;;;;;10.90;4.50;;;;;;;14.97;46.13;99959.47;1670625;85;25547;-58
2023/05/15 01:44:18;;;;;;;;;;;;;;;14.95;46.25;99961.17;1674413;85;25660;-57
2023/05/15 01:46:50;;;;;;;12.55;4.67;;;;;;;14.96;46.17;99968.77;1671963;85;26283;-55
2023/05/15 01:49:22;;;;;;;11.90;4.92;;;;;;;14.93;46.20;99969.69;1672003;85;25677;-56
2023/05/15 01:51:54;;;;;;;11.35;4.78;;;;;;;14.93;46.35;99977.04;1671989;85;27405;-56
2023/05/15 01:54:22;;;;;;;9.33;4.95;;;;;;;14.92;46.13;99968.09;1671846;85;27186;-56
2023/05/15 01:56:50;;;;;;;9.98;4.97;;;;;;;14.93;46.35;99967.51;1671939;85;25496;-56
2023/05/15 01:59:20;;;;;;;7.75;4.62;;;;;;;14.92;46.33;99957.77;1671890;85;25589;-56
2023/05/15 02:01:50;;;;;;;7.97;4.72;;;;;;;14.91;46.37;99958.35;1671943;85;25535;-55
2023/05/15 02:04:19;;;;;;;6.75;4.83;;;;;;;14.89;46.33;99947.56;1671975;85;27992;-56
2023/05/15 02:06:49;;;;;;;7.03;4.47;;;;;;;14.89;46.40;99942.13;1723881;82;25722;-56
2023/05/15 02:09:19;;;;;;;7.22;4.67;;;;;;;14.89;46.39;99940.76;1741325;82;25531;-54
2023/05/15 02:11:47;;;;;;;7.28;4.80;;;;;;;14.87;46.50;99930.21;1741350;82;25612;-58
2023/05/15 02:14:16;;;;;;;7.33;4.42;;;;;;;14.87;46.57;99924.77;1741314;82;25346;-57
2023/05/15 02:16:44;;;;;;;6.03;4.17;;;;;;;14.89;46.46;99931.23;1741436;81;27340;-55
2023/05/15 02:19:12;;;;;;;8.93;4.83;;;;;;;14.86;46.46;99928.62;1741222;82;25659;-57
2023/05/15 02:21:38;;;;;;;6.12;4.40;;;;;;;14.88;46.50;99929.63;1741303;82;25549;-55
2023/05/15 02:24:06;;;;;;;5.65;4.37;;;;;;;14.87;46.33;99930.79;1741272;82;25603;-54
2023/05/15 02:26:49;;;;;;;6.30;4.12;;;;;;;14.87;46.26;99931.57;1741326;82;25389;-56
2023/05/15 02:29:30;;;;;;;8.58;3.92;;;;;;;14.87;46.23;99928.85;1741315;82;27326;-56
2023/05/15 02:32:11;;;;;;;7.67;4.85;;;;;;;14.87;46.43;99922.05;1741358;82;25560;-56
2023/05/15 02:34:45;;;;;;;6.65;4.58;;;;;;;14.88;46.36;99918.74;1740623;82;25602;-58
2023/05/15 02:37:17;;;;;;;7.58;4.53;;;;;;;14.88;46.41;99920.92;1741302;82;25627;-57
2023/05/15 02:39:45;;;;;;;8.48;4.22;;;;;;;14.90;46.38;99922.72;1741393;82;25646;-55
2023/05/15 02:42:14;;;;;;;5.17;4.35;;;;;;;14.90;46.71;99922.72;1741253;82;27437;-57
2023/05/15 02:44:43;;;;;;;5.00;4.50;;;;;;;14.90;46.41;99922.72;1741344;82;25611;-54
2023/05/15 02:47:11;;;;;;;8.05;4.17;;;;;;;14.90;46.29;99917.84;1741498;82;25886;-54
2023/05/15 02:49:40;;;;;;;10.20;4.70;;;;;;;14.91;46.29;99913.42;1741246;82;25617;-57
2023/05/15 02:52:06;;;;;;;8.63;4.33;;;;;;;14.91;46.46;99899.81;1741322;82;25610;-58
2023/05/15 02:54:32;;;;;;;9.18;4.45;;;;;;;14.92;46.37;99886.97;1741306;82;27857;-58
2023/05/15 02:56:58;;;;;;;5.22;4.17;;;;;;;14.92;46.50;99884.25;1741125;82;25599;-58
2023/05/15 02:59:25;;;;;;;8.78;4.65;;;;;;;14.91;46.42;99879.38;1703283;84;25440;-55
2023/05/15 03:01:52;;;;;;;8.95;4.80;;;;;;;14.91;46.42;99884.02;1675069;85;25818;-55
2023/05/15 03:04:20;;;;;;;6.47;4.60;;;;;;;14.90;46.44;99876.42;1703365;83;25472;-56
2023/05/15 03:06:46;;;;;;;6.65;4.80;;;;;;;14.90;46.54;99860.09;1675058;85;27285;-58
2023/05/15 03:09:13;;;;;;;7.87;4.35;;;;;;;14.91;46.50;99861.69;1703234;84;25455;-57
2023/05/15 03:11:39;;;;;;;6.87;4.70;;;;;;;14.93;46.54;99853.95;1674995;85;25603;-57
2023/05/15 03:14:08;;;;;;;6.08;4.28;;;;;;;14.94;46.56;99851.44;1703270;83;25630;-55
2023/05/15 03:16:37;;;;;;;7.15;4.47;;;;;;;14.95;46.66;99849.52;1674991;85;25616;-57
2023/05/15 03:19:05;;;;;;;5.55;4.40;;;;;;;14.94;46.54;99851.44;1703318;84;28029;-58
2023/05/15 03:21:33;;;;;;;5.25;4.40;;;;;;;14.97;46.55;99847.81;1674885;85;25762;-56
2023/05/15 03:24:01;;;;;;;5.12;4.62;;;;;;;14.97;46.78;99839.64;1703292;84;25394;-59
2023/05/15 03:26:27;;;;;;;6.45;4.45;;;;;;;14.98;46.80;99835.18;1674973;85;25671;-57
2023/05/15 03:28:57;;;;;;;5.25;4.10;;;;;;;14.98;46.79;99827.59;1703339;84;25405;-56
2023/05/15 03:31:24;;;;;;;6.45;4.67;;;;;;;14.98;46.76;99822.92;1675033;85;27331;-58
2023/05/15 03:33:50;;;;;;;6.65;4.00;;;;;;;15.00;46.62;99822.58;1703232;84;25671;-57
2023/05/15 03:36:21;;;;;;;6.83;4.00;;;;;;;15.02;46.79;99817.02;1674973;85;25613;-55
2023/05/15 03:38:47;;;;;;;4.53;4.05;;;;;;;15.03;46.75;99814.50;1703373;84;25664;-58
2023/05/15 03:41:13;;;;;;;5.30;4.33;;;;;;;15.02;46.71;99799.90;1674533;85;25465;-59
2023/05/15 03:43:39;;;;;;;8.38;4.45;;;;;;;15.04;46.71;99794.88;1738497;82;27331;-57
2023/05/15 03:46:06;;;;;;;7.17;4.50;;;;;;;15.06;46.75;99803.48;1738292;82;25663;-56
2023/05/15 03:48:34;;;;;;;9.98;4.30;;;;;;;15.08;46.78;99791.08;1738346;82;25366;-56
2023/05/15 03:51:00;;;;;;;9.23;4.78;;;;;;;15.10;46.75;99793.46;1700423;84;26000;-58
2023/05/15 03:53:26;;;;;;;9.90;4.85;;;;;;;15.12;46.80;99787.89;1677894;85;25565;-58
2023/05/15 03:55:55;;;;;;;7.42;4.70;;;;;;;15.17;46.82;99786.84;1677891;85;29455;-57
2023/05/15 03:58:21;;;;;;;12.37;5.22;;;;;;;15.19;46.93;99789.19;1677795;85;25751;-59
2023/05/15 04:00:47;;;;;;;8.05;5.37;;;;;;;15.21;46.71;99784.20;1677920;85;25644;-57
2023/05/15 04:03:14;;;;;;;9.30;5.35;;;;;;;15.22;46.67;99786.58;1738252;82;25689;-58
2023/05/15 04:05:40;;;;;;;8.80;5.20;;;;;;;15.24;46.88;99787.59;1738325;82;25545;-58
2023/05/15 04:08:08;;;;;;;11.05;6.22;;;;;;;15.28;46.83;99787.09;1700431;84;27307;-58
2023/05/15 04:10:34;;;;;;;12.43;5.78;;;;;;;15.29;46.86;99787.33;1677870;85;25687;-58
2023/05/15 04:13:00;;;;;;;9.00;5.70;;;;;;;15.32;46.95;99782.52;1738445;82;25538;-59
2023/05/15 04:15:27;;;;;;;11.75;7.37;;;;;;;15.33;47.04;99777.30;1738313;82;25624;-58
2023/05/15 04:17:55;;;;;;;14.23;6.47;;;;;;;15.34;47.05;99772.07;1738335;82;25450;-58
2023/05/15 04:20:24;;;;;;;10.40;6.20;;;;;;;15.36;47.08;99770.33;1738327;82;28194;-56
2023/05/15 04:22:53;;;;;;;9.38;6.28;;;;;;;15.37;47.10;99776.02;1738397;82;25453;-56
2023/05/15 04:25:21;;;;;;;12.43;6.90;;;;;;;15.37;47.16;99764.53;1738660;82;25562;-55
2023/05/15 04:27:48;;;;;;;11.53;6.97;;;;;;;15.40;47.22;99761.69;1738478;82;25748;-56
2023/05/15 04:30:14;;;;;;;12.40;6.55;;;;;;;15.40;47.22;99752.92;1738524;82;25468;-57
2023/05/15 04:32:42;;;;;;;10.38;6.33;;;;;;;15.42;47.39;99745.18;1738272;82;27356;-56
2023/05/15 04:35:12;;;;;;;11.83;6.37;;;;;;;15.43;47.22;99755.53;1738252;82;25594;-56
2023/05/15 04:37:41;;;;;;;10.65;5.28;;;;;;;15.43;47.29;99744.05;1738317;82;25448;-55
2023/05/15 04:40:09;;;;;;;10.95;5.70;;;;;;;15.45;47.25;99743.12;1711641;82;26182;-57
2023/05/15 04:42:37;;;;;;;9.40;5.50;;;;;;;15.46;47.01;99735.17;1739930;81;25574;-57
2023/05/15 04:45:06;;;;;;;6.37;5.08;;;;;;;15.50;46.81;99729.80;1741306;81;27561;-56
2023/05/15 04:47:35;;;;;;;8.40;5.70;;;;;;;15.54;46.84;99734.73;1741131;82;25481;-56
2023/05/15 04:50:03;;;;;;;12.70;5.92;;;;;;;15.57;46.80;99726.44;1741327;81;25613;-56
2023/05/15 04:52:31;;;;;;;6.35;4.78;;;;;;;15.61;46.55;99719.92;1741202;82;25649;-56
2023/05/15 04:54:58;;;;;;;8.60;5.22;;;;;;;15.65;46.59;99728.17;1741240;82;25536;-58
2023/05/15 04:57:26;;;;;;;11.97;5.53;;;;;;;15.68;46.34;99723.34;1741183;81;28025;-57
2023/05/15 04:59:54;;;;;;;10.28;5.17;;;;;;;15.70;46.19;99721.08;1741174;82;25428;-58
2023/05/15 05:02:23;;;;;;;6.53;4.78;;;;;;;15.74;46.23;99715.70;1741178;82;25515;-58
2023/05/15 05:04:50;;;;;;;7.90;4.60;;;;;;;15.77;46.16;99719.11;1741441;82;26415;-58
2023/05/15 05:07:17;;;;;;;10.18;4.90;;;;;;;15.79;46.04;99708.62;1741233;82;25388;-58
2023/05/15 05:09:45;;;;;;;6.58;4.42;;;;;;;15.82;45.98;99714.73;1741210;82;27241;-58
2023/05/15 05:12:13;;;;;;;8.70;4.47;;;;;;;15.84;45.80;99713.80;1741141;82;25681;-57
2023/05/15 05:14:40;;;;;;;12.82;4.70;;;;;;;15.87;46.01;99712.50;1741209;82;25534;-56
2023/05/15 05:17:08;;;;;;;6.37;4.20;;;;;;;15.91;45.98;99713.94;1741109;82;25623;-56
2023/05/15 05:19:36;;;;;;;10.08;4.22;;;;;;;15.94;45.87;99714.59;1741206;82;25568;-59
2023/05/15 05:22:06;;;;;;;7.78;4.33;;;;;;;15.98;45.81;99716.02;1703207;84;27351;-57
2023/05/15 05:24:36;;;;;;;7.08;3.98;;;;;;;16.01;45.76;99709.27;1674928;85;25655;-58
2023/05/15 05:27:04;;;;;;;6.33;3.90;;;;;;;16.05;45.60;99707.38;1703194;84;25392;-54
2023/05/15 05:29:33;;;;;;;6.70;3.83;;;;;;;16.08;45.67;99707.84;1674867;84;25681;-54
2023/05/15 05:31:59;;;;;;;4.95;4.03;;;;;;;16.10;45.49;99700.86;1703244;84;25464;-54
2023/05/15 05:34:29;;;;;;;7.83;4.05;;;;;;;16.13;45.45;99693.33;1674854;85;27334;-55
2023/05/15 05:36:55;;;;;;;6.60;3.70;;;;;;;16.17;45.52;99689.30;1703436;84;25449;-54
2023/05/15 05:39:21;;;;;;;6.03;3.58;;;;;;;16.21;45.33;99691.53;1674878;85;25643;-54
2023/05/15 05:41:47;;;;;;;4.28;3.58;;;;;;;16.24;45.45;99692.15;1703097;83;26449;-55
2023/05/15 05:44:13;;;;;;;7.30;4.30;;;;;;;16.26;45.32;99696.69;1674961;85;25474;-54
2023/05/15 05:46:41;;;;;;;9.00;4.22;;;;;;;16.28;45.31;99685.39;1702932;84;27359;-54
2023/05/15 05:49:08;;;;;;;6.62;4.03;;;;;;;16.34;45.33;99692.14;1673673;85;27205;-55
2023/05/15 05:51:36;;;;;;;11.90;4.08;;;;;;;16.37;45.30;99698.24;1702256;84;25979;-57
2023/05/15 05:54:02;;;;;;;10.82;3.65;;;;;;;16.42;45.41;99705.55;1673985;85;25714;-57
2023/05/15 05:56:30;;;;;;;5.53;4.20;;;;;;;16.46;45.20;99699.37;1702339;84;25792;-57
2023/05/15 05:58:58;;;;;;;10.38;4.00;;;;;;;16.46;45.31;99701.52;1673734;85;27262;-58
2023/05/15 06:01:26;;;;;;;7.87;4.05;;;;;;;16.46;45.43;99700.15;1701679;83;26105;-57
2023/05/15 06:03:54;;;;;;;5.40;4.08;;;;;;;16.46;45.74;99710.29;1674863;85;25461;-57
2023/05/15 06:06:21;;;;;;;7.50;3.95;;;;;;;16.40;45.92;99703.77;1703339;84;26190;-57
2023/05/15 06:08:47;;;;;;;5.95;4.60;;;;;;;16.35;46.36;99708.16;1675069;85;25528;-58
2023/05/15 06:11:13;;;;;;;11.30;4.50;;;;;;;16.34;46.50;99712.02;1703392;83;27332;-58
2023/05/15 06:13:40;;;;;;;6.92;4.20;;;;;;;16.36;47.11;99714.39;1674947;85;25400;-58
2023/05/15 06:16:08;;;;;;;7.85;4.00;;;;;;;16.25;46.75;99711.47;1703378;83;25572;-58
2023/05/15 06:18:34;;;;;;;5.53;4.10;;;;;;;16.11;47.17;99698.94;1674971;85;25639;-58
2023/05/15 06:21:00;;;;;;;8.90;4.22;;;;;;;16.05;47.41;99714.20;1703404;84;25385;-58
2023/05/15 06:23:28;;;;;;;10.90;4.30;;;;;;;15.97;48.38;99715.23;1675039;85;27290;-58
2023/05/15 06:25:54;;;;;;;7.85;3.92;;;;;;;15.87;48.08;99710.36;1703352;83;25567;-58
2023/05/15 06:28:21;;;;;;;8.60;4.15;;;;;;;15.80;48.51;99714.28;1675046;85;25648;-58
2023/05/15 06:30:47;;;;;;;5.20;4.70;;;;;;;15.76;48.77;99717.52;1703353;84;25602;-59
2023/05/15 06:33:15;;;;;;;9.20;4.10;;;;;;;15.70;49.59;99711.54;1652039;85;25593;-59
2023/05/15 06:35:41;;;;;;;5.58;4.20;;;;;;;15.62;49.31;99710.58;1703378;84;28082;-58
2023/05/15 06:38:09;;;;;;;6.65;4.33;;;;;;;15.57;49.77;99720.41;1675003;85;25609;-59
2023/05/15 06:40:35;;;;;;;11.10;4.65;;;;;;;15.50;50.27;99715.59;1703297;84;25407;-58
2023/05/15 06:43:01;;;;;;;6.08;4.47;;;;;;;15.44;50.92;99713.48;1673548;85;25684;-58
2023/05/15 06:45:27;;;;;;;9.05;4.85;;;;;;;15.35;51.83;99717.00;1738488;82;25552;-59
2023/05/15 06:47:53;;;;;;;5.60;4.37;;;;;;;15.25;52.46;99716.38;1738378;82;27367;-59
2023/05/15 06:50:22;;;;;;;7.03;5.22;;;;;;;15.18;53.13;99719.53;1738308;82;25462;-58
2023/05/15 06:52:48;;;;;;;10.20;6.03;;;;;;;15.12;53.76;99725.83;1738551;82;25415;-59
2023/05/15 06:55:14;;;;;;;6.60;5.03;;;;;;;15.05;54.32;99716.91;1738343;82;25664;-59
2023/05/15 06:57:41;;;;;;;6.40;4.45;;;;;;;14.93;54.78;99716.44;1738395;82;25190;-59
2023/05/15 07:00:12;;;;;;;11.35;5.22;;;;;;;14.81;55.60;99719.23;1738323;82;27319;-58
2023/05/15 07:02:39;;;;;;;6.78;5.03;;;;;;;14.70;56.07;99719.55;1738372;82;25558;-58
2023/05/15 07:05:10;;;;;;;11.70;5.35;;;;;;;14.64;57.50;99719.03;1738432;82;25437;-57
2023/05/15 07:07:36;;;;;;;10.98;5.10;;;;;;;14.59;57.92;99713.03;1738402;82;25557;-55
2023/05/15 07:10:07;;;;;;;11.33;5.37;;;;;;;14.56;58.92;99716.66;1738370;82;25437;-56
2023/05/15 07:12:34;;;;;;;10.30;5.80;;;;;;;14.56;59.20;99710.43;1738436;82;27492;-55
2023/05/15 07:15:00;;;;;;;10.20;5.65;;;;;;;14.53;60.14;99711.91;1738284;82;25640;-55
2023/05/15 07:17:26;;;;;;;8.55;5.33;;;;;;;14.50;60.50;99713.17;1738396;82;25370;-55
2023/05/15 07:19:52;;;;;;;10.90;5.75;;;;;;;14.44;60.11;99713.20;1738216;81;25571;-55
2023/05/15 07:22:18;;;;;;;9.93;7.12;;;;;;;14.40;61.11;99714.47;1738423;82;25563;-52
2023/05/15 07:24:44;;;;;;;12.23;7.15;;;;;;;14.37;61.60;99707.03;1738339;82;27373;-54
2023/05/15 07:27:11;;;;;;;7.00;6.22;;;;;;;14.34;62.35;99709.08;1700355;84;25810;-50
2023/05/15 07:29:37;;;;;;;10.95;6.10;;;;;;;14.27;62.28;99702.06;1677916;85;25448;-50
2023/05/15 07:32:08;;;;;;;14.63;7.12;;;;;;;14.27;63.78;99704.23;1677871;85;26364;-52
2023/05/15 07:34:34;;;;;;;21.73;11.40;;;;;;;14.30;64.54;99708.17;1738357;82;25635;-52
2023/05/15 07:37:00;;;;;;;17.37;11.33;;;;;;;14.34;65.52;99708.50;1738372;82;27294;-50
2023/05/15 07:39:26;;;;;;;9.65;7.35;;;;;;;14.34;65.33;99709.86;1738275;82;25618;-51
2023/05/15 07:41:52;;;;;;;8.80;6.70;;;;;;;14.37;66.19;99704.31;1738358;82;25576;-51
2023/05/15 07:44:18;;;;;;;12.37;8.18;;;;;;;14.43;66.72;99704.83;1700124;83;25664;-53
2023/05/15 07:46:44;;;;;;;11.05;8.50;;;;;;;14.46;67.18;99701.42;1677909;85;25674;-49
2023/05/15 07:49:11;;;;;;;9.43;7.47;;;;;;;14.56;68.08;99708.48;1738364;82;27988;-51
2023/05/15 07:51:39;;;;;;;9.15;7.95;;;;;;;14.62;67.55;99707.68;1738288;82;25212;-53
2023/05/15 07:54:07;;;;;;;9.83;6.90;;;;;;;14.59;67.59;99710.31;1738301;82;25567;-49
2023/05/15 07:56:33;;;;;;;8.83;6.58;;;;;;;14.56;67.33;99709.84;1738270;82;25630;-53
2023/05/15 07:58:59;;;;;;;10.05;6.97;;;;;;;14.51;66.85;99712.83;1738241;82;25600;-51
2023/05/15 08:01:25;;;;;;;9.75;7.20;;;;;;;14.52;67.63;99708.17;1738287;82;27323;-48
2023/05/15 08:03:52;;;;;;;7.45;6.65;;;;;;;14.49;67.89;99710.22;1738151;82;25623;-49
2023/05/15 08:06:18;;;;;;;10.38;7.15;;;;;;;14.53;68.50;99707.04;1738243;82;25512;-49
2023/05/15 08:08:44;;;;;;;14.93;7.17;;;;;;;14.56;69.28;99692.16;1738245;82;25625;-49
2023/05/15 08:11:10;;;;;;;11.75;7.33;;;;;;;14.65;69.26;99689.29;1700527;84;25579;-49
2023/05/15 08:13:36;;;;;;;9.50;8.00;;;;;;;14.71;69.64;99681.64;1677868;85;27486;-49
2023/05/15 08:16:08;;;;;;;10.38;7.20;;;;;;;14.81;69.94;99690.64;1738225;82;25543;-49
2023/05/15 08:18:34;;;;;;;14.23;8.05;;;;;;;14.85;69.35;99686.09;1738373;82;25186;-49
2023/05/15 08:21:00;;;;;;;11.05;7.87;;;;;;;14.90;70.22;99679.02;1738252;82;25620;-54
2023/05/15 08:23:26;;;;;;;13.05;7.53;;;;;;;14.94;69.95;99684.55;1738247;81;25611;-52
2023/05/15 08:25:52;;;;;;;9.90;7.83;;;;;;;14.91;68.96;99682.52;1738234;82;27374;-49
2023/05/15 08:28:19;;;;;;;8.63;7.55;;;;;;;14.88;69.37;99673.69;1738140;82;25850;-53
2023/05/15 08:30:45;;;;;;;24.30;16.02;;;;;;;14.90;69.30;99664.05;1738320;82;25534;-49
2023/05/15 08:33:11;;;;;;;11.68;7.72;;;;;;;14.92;69.52;99659.03;1738254;82;26387;-49
2023/05/15 08:35:39;;;;;;;9.00;7.40;;;;;;;14.92;69.27;99659.03;1738290;81;25600;-49
2023/05/15 08:38:06;;;;;;;12.15;6.80;;;;;;;14.95;69.37;99661.62;1738300;82;27260;-49
2023/05/15 08:40:33;;;;;;;9.35;7.25;;;;;;;14.90;69.06;99659.17;1738194;82;25515;-50
2023/05/15 08:43:13;;;;;;;10.38;6.78;;;;;;;14.92;69.42;99658.24;1738124;82;25504;-49
2023/05/15 08:45:42;;;;;;;8.05;7.12;;;;;;;14.88;69.75;99664.97;1699281;84;25613;-48
2023/05/15 08:48:21;;;;;;;8.63;7.40;;;;;;;14.81;69.09;99658.55;1679622;83;25588;-51
2023/05/15 08:50:49;;;;;;;9.45;7.33;;;;;;;14.72;69.11;99658.16;1719862;83;28122;-48
2023/05/15 08:53:20;;;;;;;13.22;7.92;;;;;;;14.64;69.14;99661.88;1690864;84;25506;-49
2023/05/15 08:55:46;;;;;;;9.08;7.10;;;;;;;14.55;69.76;99652.47;1691000;84;25505;-53
2023/05/15 08:58:16;;;;;;;9.65;7.37;;;;;;;14.46;69.80;99666.83;1690874;84;25651;-49
2023/05/15 09:00:42;;;;;;;11.38;7.90;;;;;;;14.36;70.09;99663.27;1690977;84;25637;-52
2023/05/15 09:03:18;;;;;;;13.38;8.15;;;;;;;14.30;70.71;99666.02;1690734;84;27412;-51
2023/05/15 09:05:48;;;;;;;13.65;8.25;;;;;;;14.23;70.54;99659.81;1689323;84;27236;-51
2023/05/15 09:08:18;;;;;;;9.90;7.70;;;;;;;14.14;70.94;99657.84;1690929;84;25832;-49
2023/05/15 09:10:48;;;;;;;12.28;9.03;;;;;;;14.05;71.27;99654.50;1690802;84;25644;-49
2023/05/15 09:13:16;;;;;;;21.37;12.40;;;;;;;13.98;71.66;99655.09;1691000;84;25656;-50
2023/05/15 09:15:47;;;;;;;55.03;27.62;;;;;;;13.92;72.15;99652.39;1690937;84;27400;-50
2023/05/15 09:18:18;;;;;;;22.77;14.25;;;;;;;13.85;72.66;99653.56;1690937;84;26212;-49
2023/05/15 09:20:44;;;;;;;30.10;18.48;;;;;;;13.74;72.87;99648.63;1719776;83;25552;-50
2023/05/15 09:23:23;;;;;;;48.68;25.12;;;;;;;13.71;73.29;99647.16;1690897;84;25689;-49
2023/05/15 09:25:55;;;;;;;31.05;17.90;;;;;;;13.69;74.42;99643.98;1686857;84;25440;-49
2023/05/15 09:28:27;;;;;;;17.82;11.90;;;;;;;13.64;74.51;99639.03;1690854;84;29644;-50
2023/05/15 09:31:03;;;;;;;13.85;10.35;;;;;;;13.64;74.87;99640.96;1718663;83;25608;-49
2023/05/15 09:33:38;;;;;;;23.07;14.33;;;;;;;13.65;75.37;99647.96;1690931;84;25500;-49
2023/05/15 09:36:09;;;;;;;12.95;10.30;;;;;;;13.65;75.61;99643.88;1691068;84;25694;-49
2023/05/15 09:38:47;;;;;;;15.23;9.85;;;;;;;13.63;75.47;99646.94;1691006;84;25461;-53
2023/05/15 09:41:11;;;;;;;17.70;11.65;;;;;;;13.59;76.05;99643.92;1690103;84;27363;-50
2023/05/15 09:43:41;;;;;;;14.23;11.97;;;;;;;13.52;75.75;99639.08;1689161;84;25749;-51
2023/05/15 09:46:11;;;;;;;10.15;8.40;;;;;;;13.51;76.68;99642.91;1691050;84;25715;-54
2023/05/15 09:48:40;;;;;;;53.30;49.80;;;;;;;13.50;76.49;99639.18;1689010;84;25905;-54
2023/05/15 09:51:17;;;;;;;;;;;;;;;13.28;77.15;99596.45;1699300;84;25414;-54
2023/05/15 09:53:54;;;;;;;10.13;8.85;;;;;;;13.51;78.21;99635.34;1696901;84;27893;-52
2023/05/15 09:56:21;;;;;;;10.80;9.70;;;;;;;13.52;77.36;99630.92;1696798;84;25709;-50
2023/05/15 09:59:00;;;;;;;15.72;10.53;;;;;;;13.58;78.06;99624.66;1685770;85;25645;-53
2023/05/15 10:01:28;;;;;;;16.62;11.73;;;;;;;13.69;79.12;99623.59;1685844;85;26190;-53
2023/05/15 10:04:06;;;;;;;11.50;10.23;;;;;;;13.87;79.56;99624.88;1696897;84;25415;-50
2023/05/15 10:06:43;;;;;;;13.65;10.32;;;;;;;14.04;80.06;99623.78;1696697;84;27351;-51
2023/05/15 10:09:15;;;;;;;12.88;10.75;;;;;;;14.20;79.39;99606.14;1696484;84;25786;-50
2023/05/15 10:11:47;;;;;;;11.30;9.90;;;;;;;14.32;79.64;99597.08;1696791;84;25643;-52
2023/05/15 10:14:17;;;;;;;12.13;9.28;;;;;;;14.48;79.62;99588.35;1696304;84;25633;-56
2023/05/15 10:16:49;;;;;;;15.45;9.33;;;;;;;14.62;79.06;99590.66;1696812;84;25593;-53
2023/05/15 10:19:19;;;;;;;10.70;9.05;;;;;;;14.69;78.41;99590.03;1696764;84;27347;-55
2023/05/15 10:21:48;;;;;;;11.60;8.88;;;;;;;14.75;78.09;99598.94;1696662;84;25476;-51
2023/05/15 10:24:18;;;;;;;14.13;8.58;;;;;;;14.69;77.38;99599.55;1696748;84;25615;-52
2023/05/15 10:26:48;;;;;;;13.48;9.53;;;;;;;14.64;77.04;99598.47;1696790;84;26243;-54
2023/05/15 10:29:20;;;;;;;11.50;8.80;;;;;;;14.54;76.60;99592.95;1696813;84;25616;-52
2023/05/15 10:31:50;;;;;;;13.43;8.88;;;;;;;14.52;76.60;99594.69;1696813;84;27405;-52
2023/05/15 10:34:21;;;;;;;9.10;7.78;;;;;;;14.44;76.58;99591.58;1685814;85;25418;-50
2023/05/15 10:36:50;;;;;;;9.63;7.97;;;;;;;14.36;76.34;99591.17;1696787;84;25628;-49
2023/05/15 10:39:18;;;;;;;10.98;8.85;;;;;;;14.20;75.71;99600.70;1696754;84;25622;-49
2023/05/15 10:41:48;;;;;;;10.08;8.73;;;;;;;14.12;76.40;99596.22;1696825;84;25572;-50
2023/05/15 10:45:36;;;;;;;13.32;9.28;;;;;;;14.15;77.50;99600.38;1832514;77;26149;-50
2023/05/15 10:48:07;;;;;;;13.45;11.80;;;;;;;14.05;77.11;99606.91;1790318;80;25539;-49
2023/05/15 10:50:38;;;;;;;14.38;10.00;;;;;;;14.05;77.81;99604.98;1790273;79;27486;-50
2023/05/15 10:53:10;;;;;;;12.70;9.90;;;;;;;14.06;78.18;99608.47;1758907;81;25607;-50
2023/05/15 10:55:37;;;;;;;10.05;8.30;;;;;;;14.08;78.06;99607.00;1759029;81;25555;-48
2023/05/15 10:58:11;;;;;;;11.70;9.20;;;;;;;14.08;77.84;99597.48;1759190;81;25629;-50
2023/05/15 11:00:44;;;;;;;12.35;10.28;;;;;;;14.04;78.66;99602.60;1759024;81;25618;-49
2023/05/15 11:03:19;;;;;;;11.10;9.55;;;;;;;14.01;78.73;99607.60;1758937;81;27581;-50
2023/05/15 11:06:14;;;;;;;10.88;8.85;;;;;;;13.98;79.77;99604.80;1756386;81;25436;-49
2023/05/15 11:08:44;;;;;;;12.55;9.45;;;;;;;13.95;79.26;99600.83;1759011;81;25625;-49
2023/05/15 11:11:45;;;;;;;10.43;9.18;;;;;;;13.96;79.89;99598.89;1758978;81;25616;-49
2023/05/15 11:14:13;;;;;;;11.05;9.45;;;;;;;13.91;79.84;99596.43;1670507;85;25593;-52
2023/05/15 11:17:03;;;;;;;11.03;9.88;;;;;;;13.86;80.14;99600.77;1674351;85;27572;-50
2023/05/15 11:19:48;;;;;;;13.68;10.70;;;;;;;13.79;80.82;99591.30;1674308;85;25928;-52
2023/05/15 11:22:35;;;;;;;12.03;9.80;;;;;;;13.64;81.99;99596.91;1672480;85;25448;-51
2023/05/15 11:25:13;;;;;;;13.95;11.50;;;;;;;13.52;80.92;99603.75;1674380;85;25829;-52
2023/05/15 11:27:45;;;;;;;13.58;11.15;;;;;;;13.44;81.73;99603.32;1674445;85;25508;-53
2023/05/15 11:30:23;;;;;;;14.73;10.68;;;;;;;13.36;81.95;99601.53;1674395;85;27482;-52
2023/05/15 11:33:07;;;;;;;12.78;10.13;;;;;;;13.29;82.38;99588.51;1674415;85;25761;-52
2023/05/15 11:35:41;;;;;;;11.85;10.55;;;;;;;13.22;82.57;99592.38;1674372;85;25207;-53
2023/05/15 11:38:20;;;;;;;12.73;9.93;;;;;;;13.14;83.24;99590.59;1674215;85;25545;-54
2023/05/15 11:40:55;;;;;;;11.38;10.18;;;;;;;13.07;83.63;99583.80;1651397;85;25556;-52